Kansas City, Missouri
Current Conditions -  °F | °C
As of 1:54 AM on Wednesday 26 Nov 2014 (Local Time) from KMKC Reporting Station
Overcast Overcast  
Wind Chill: 34°   Ceiling: 8000
Heat Index: 40°   Visibility: 10mi
Dew Point: 22°   Wind: 8mph
Humidity: 49%   Direction: 180°S
Pressure: 29.95"   Gusts: NA
Location:  39.1°N, 94.58°W
Report Text: KMKC 260754Z 18007KT 10SM SCT065 OVC080 04/M06 A2995 RMK AO2 SLP144 T00441056
Loading
Personal Weather Stations






























Interactive Weather Map New forecast layout! Learn more

10-Day Weather Forecast

Advertisements
Track Severe Weather on mobile